sensor_id;sensor_type;location;lat;lon;timestamp;pressure;altitude;pressure_sealevel;temperature;humidity
3664;BME280;1848;51.042;7.066;2022-07-05T00:01:09;100756.09;;;15.91;83.20
3664;BME280;1848;51.042;7.066;2022-07-05T00:03:36;100758.41;;;15.88;83.00
3664;BME280;1848;51.042;7.066;2022-07-05T00:06:03;100752.63;;;15.84;82.34
3664;BME280;1848;51.042;7.066;2022-07-05T00:08:29;100729.47;;;15.63;82.62
3664;BME280;1848;51.042;7.066;2022-07-05T00:10:56;100735.44;;;15.72;82.25
3664;BME280;1848;51.042;7.066;2022-07-05T00:13:22;100763.66;;;15.76;82.29
3664;BME280;1848;51.042;7.066;2022-07-05T00:15:49;100758.03;;;15.71;82.04
3664;BME280;1848;51.042;7.066;2022-07-05T00:18:17;100766.56;;;15.68;83.27
3664;BME280;1848;51.042;7.066;2022-07-05T00:20:43;100756.81;;;15.67;83.72
3664;BME280;1848;51.042;7.066;2022-07-05T00:23:09;100756.22;;;15.65;84.89
3664;BME280;1848;51.042;7.066;2022-07-05T00:25:36;100757.25;;;15.64;84.26
3664;BME280;1848;51.042;7.066;2022-07-05T00:28:02;100762.63;;;15.64;84.40
3664;BME280;1848;51.042;7.066;2022-07-05T00:30:30;100765.53;;;15.62;83.88
3664;BME280;1848;51.042;7.066;2022-07-05T00:32:56;100764.31;;;15.58;83.15
3664;BME280;1848;51.042;7.066;2022-07-05T00:35:23;100763.09;;;15.54;84.15
3664;BME280;1848;51.042;7.066;2022-07-05T00:37:49;100756.91;;;15.40;84.83
3664;BME280;1848;51.042;7.066;2022-07-05T00:40:15;100768.94;;;15.37;85.98
3664;BME280;1848;51.042;7.066;2022-07-05T00:42:42;100770.22;;;15.28;86.59
3664;BME280;1848;51.042;7.066;2022-07-05T00:45:09;100728.63;;;14.91;86.73
3664;BME280;1848;51.042;7.066;2022-07-05T00:47:35;100767.72;;;15.27;85.81
3664;BME280;1848;51.042;7.066;2022-07-05T00:50:03;100767.72;;;15.27;85.50
3664;BME280;1848;51.042;7.066;2022-07-05T00:52:30;100766.06;;;15.26;85.24
3664;BME280;1848;51.042;7.066;2022-07-05T00:54:56;100769.56;;;15.26;85.36
3664;BME280;1848;51.042;7.066;2022-07-05T00:57:23;100772.91;;;15.21;85.51
3664;BME280;1848;51.042;7.066;2022-07-05T00:59:50;100766.47;;;15.16;86.41
3664;BME280;1848;51.042;7.066;2022-07-05T01:02:17;100763.56;;;15.17;87.83
3664;BME280;1848;51.042;7.066;2022-07-05T01:04:48;100761.94;;;15.16;88.32
3664;BME280;1848;51.042;7.066;2022-07-05T01:07:17;100762.97;;;15.15;87.89
3664;BME280;1848;51.042;7.066;2022-07-05T01:09:44;100763.19;;;15.14;87.33
3664;BME280;1848;51.042;7.066;2022-07-05T01:12:10;100773.34;;;15.12;87.76
3664;BME280;1848;51.042;7.066;2022-07-05T01:14:37;100775.00;;;15.06;87.04
3664;BME280;1848;51.042;7.066;2022-07-05T01:17:04;100771.91;;;15.02;87.63
3664;BME280;1848;51.042;7.066;2022-07-05T01:19:31;100767.97;;;14.98;88.11
3664;BME280;1848;51.042;7.066;2022-07-05T01:21:58;100772.13;;;14.94;88.45
3664;BME280;1848;51.042;7.066;2022-07-05T01:24:29;100771.09;;;14.89;88.15
3664;BME280;1848;51.042;7.066;2022-07-05T01:26:56;100779.56;;;14.86;88.30
3664;BME280;1848;51.042;7.066;2022-07-05T01:29:23;100769.63;;;14.79;88.84
3664;BME280;1848;51.042;7.066;2022-07-05T01:31:50;100775.44;;;14.76;89.54
3664;BME280;1848;51.042;7.066;2022-07-05T01:34:16;100774.78;;;14.74;89.83
3664;BME280;1848;51.042;7.066;2022-07-05T01:36:43;100766.09;;;14.72;88.95
3664;BME280;1848;51.042;7.066;2022-07-05T01:39:09;100774.38;;;14.71;89.61
3664;BME280;1848;51.042;7.066;2022-07-05T01:41:36;100772.34;;;14.66;89.21
3664;BME280;1848;51.042;7.066;2022-07-05T01:44:03;100773.53;;;14.57;90.09
3664;BME280;1848;51.042;7.066;2022-07-05T01:46:31;100780.97;;;14.55;90.61
3664;BME280;1848;51.042;7.066;2022-07-05T01:49:06;100772.06;;;14.41;90.58
3664;BME280;1848;51.042;7.066;2022-07-05T01:51:40;100783.84;;;14.46;92.08
3664;BME280;1848;51.042;7.066;2022-07-05T01:54:07;100783.84;;;14.46;92.94
3664;BME280;1848;51.042;7.066;2022-07-05T01:56:36;100788.00;;;14.42;93.64
3664;BME280;1848;51.042;7.066;2022-07-05T01:59:03;100787.78;;;14.44;93.37
3664;BME280;1848;51.042;7.066;2022-07-05T02:01:39;100776.81;;;14.39;94.25
3664;BME280;1848;51.042;7.066;2022-07-05T02:04:08;100787.59;;;14.39;94.22
3664;BME280;1848;51.042;7.066;2022-07-05T02:06:35;100781.59;;;14.37;93.61
3664;BME280;1848;51.042;7.066;2022-07-05T02:09:04;100783.84;;;14.33;94.35
3664;BME280;1848;51.042;7.066;2022-07-05T02:11:31;100745.72;;;14.09;93.56
3664;BME280;1848;51.042;7.066;2022-07-05T02:13:58;100784.47;;;14.28;93.27
3664;BME280;1848;51.042;7.066;2022-07-05T02:16:25;100769.53;;;14.19;94.08
3664;BME280;1848;51.042;7.066;2022-07-05T02:18:52;100784.66;;;14.27;94.57
3664;BME280;1848;51.042;7.066;2022-07-05T02:21:19;100784.66;;;14.27;94.16
3664;BME280;1848;51.042;7.066;2022-07-05T02:23:45;100787.97;;;14.29;94.63
3664;BME280;1848;51.042;7.066;2022-07-05T02:26:12;100786.31;;;14.35;94.48
3664;BME280;1848;51.042;7.066;2022-07-05T02:28:39;100783.63;;;14.41;94.13
3664;BME280;1848;51.042;7.066;2022-07-05T02:31:06;100782.63;;;14.49;93.70
3664;BME280;1848;51.042;7.066;2022-07-05T02:33:32;100774.53;;;14.42;92.67
3664;BME280;1848;51.042;7.066;2022-07-05T02:36:12;100794.63;;;14.53;91.90
3664;BME280;1848;51.042;7.066;2022-07-05T02:38:39;100791.53;;;14.56;93.17
3664;BME280;1848;51.042;7.066;2022-07-05T02:41:10;100792.41;;;14.63;94.15
3664;BME280;1848;51.042;7.066;2022-07-05T02:43:38;100794.88;;;14.65;92.89
3664;BME280;1848;51.042;7.066;2022-07-05T02:46:06;100794.06;;;14.64;93.81
3664;BME280;1848;51.042;7.066;2022-07-05T02:48:33;100781.44;;;14.65;93.53
3664;BME280;1848;51.042;7.066;2022-07-05T02:51:02;100785.34;;;14.62;91.80
3664;BME280;1848;51.042;7.066;2022-07-05T02:53:29;100787.22;;;14.62;92.12
3664;BME280;1848;51.042;7.066;2022-07-05T02:55:55;100785.13;;;14.57;92.26
3664;BME280;1848;51.042;7.066;2022-07-05T02:58:22;100782.44;;;14.51;92.63
3664;BME280;1848;51.042;7.066;2022-07-05T03:00:48;100783.84;;;14.40;92.63
3664;BME280;1848;51.042;7.066;2022-07-05T03:03:15;100783.44;;;14.36;92.96
3664;BME280;1848;51.042;7.066;2022-07-05T03:05:42;100788.38;;;14.26;91.12
3664;BME280;1848;51.042;7.066;2022-07-05T03:08:08;100781.31;;;14.18;93.09
3664;BME280;1848;51.042;7.066;2022-07-05T03:10:35;100787.09;;;14.08;93.00
3664;BME280;1848;51.042;7.066;2022-07-05T03:13:03;100787.06;;;14.02;94.24
3664;BME280;1848;51.042;7.066;2022-07-05T03:15:29;100791.38;;;13.96;93.15
3664;BME280;1848;51.042;7.066;2022-07-05T03:17:55;100782.47;;;13.89;92.05
3664;BME280;1848;51.042;7.066;2022-07-05T03:20:22;100779.34;;;13.85;93.06
3664;BME280;1848;51.042;7.066;2022-07-05T03:22:48;100782.44;;;13.82;93.10
3664;BME280;1848;51.042;7.066;2022-07-05T03:25:14;100779.13;;;13.80;93.10
3664;BME280;1848;51.042;7.066;2022-07-05T03:27:41;100781.22;;;13.85;91.12
3664;BME280;1848;51.042;7.066;2022-07-05T03:30:08;100771.28;;;13.85;91.96
3664;BME280;1848;51.042;7.066;2022-07-05T03:32:35;100779.19;;;14.00;92.51
3664;BME280;1848;51.042;7.066;2022-07-05T03:35:02;100782.75;;;14.07;91.89
3664;BME280;1848;51.042;7.066;2022-07-05T03:37:28;100778.19;;;14.08;90.49
3664;BME280;1848;51.042;7.066;2022-07-05T03:39:54;100776.75;;;14.12;87.95
3664;BME280;1848;51.042;7.066;2022-07-05T03:42:21;100779.25;;;14.20;87.80
3664;BME280;1848;51.042;7.066;2022-07-05T03:44:47;100787.97;;;14.29;87.80
3664;BME280;1848;51.042;7.066;2022-07-05T03:47:14;100794.63;;;14.33;88.96
3664;BME280;1848;51.042;7.066;2022-07-05T03:49:41;100787.53;;;14.25;90.35
3664;BME280;1848;51.042;7.066;2022-07-05T03:52:07;100789.81;;;14.22;91.87
3664;BME280;1848;51.042;7.066;2022-07-05T03:54:34;100797.03;;;14.15;92.82
3664;BME280;1848;51.042;7.066;2022-07-05T03:57:00;100796.19;;;14.07;93.20
3664;BME280;1848;51.042;7.066;2022-07-05T03:59:27;100799.47;;;14.03;93.29
3664;BME280;1848;51.042;7.066;2022-07-05T04:01:53;100796.75;;;13.96;93.59
3664;BME280;1848;51.042;7.066;2022-07-05T04:04:19;100800.47;;;13.95;93.49
3664;BME280;1848;51.042;7.066;2022-07-05T04:06:46;100809.38;;;13.96;94.01
3664;BME280;1848;51.042;7.066;2022-07-05T04:09:12;100810.00;;;13.98;94.03
3664;BME280;1848;51.042;7.066;2022-07-05T04:11:39;100820.56;;;13.99;93.73
3664;BME280;1848;51.042;7.066;2022-07-05T04:14:05;100797.16;;;13.93;93.33
3664;BME280;1848;51.042;7.066;2022-07-05T04:16:31;100814.81;;;14.16;92.95
3664;BME280;1848;51.042;7.066;2022-07-05T04:18:58;100829.13;;;14.30;92.41
3664;BME280;1848;51.042;7.066;2022-07-05T04:21:25;100822.97;;;14.36;91.69
3664;BME280;1848;51.042;7.066;2022-07-05T04:23:51;100831.84;;;14.36;91.90
3664;BME280;1848;51.042;7.066;2022-07-05T04:26:17;100833.91;;;14.34;92.44
3664;BME280;1848;51.042;7.066;2022-07-05T04:28:44;100837.22;;;14.36;91.96
3664;BME280;1848;51.042;7.066;2022-07-05T04:31:11;100835.16;;;14.38;91.87
3664;BME280;1848;51.042;7.066;2022-07-05T04:33:37;100844.34;;;14.57;91.03
3664;BME280;1848;51.042;7.066;2022-07-05T04:36:04;100839.19;;;14.62;90.92
3664;BME280;1848;51.042;7.066;2022-07-05T04:38:31;100837.13;;;14.64;90.89
3664;BME280;1848;51.042;7.066;2022-07-05T04:40:57;100836.28;;;14.64;90.23
3664;BME280;1848;51.042;7.066;2022-07-05T04:43:23;100836.28;;;14.64;89.94
3664;BME280;1848;51.042;7.066;2022-07-05T04:45:50;100836.50;;;14.69;90.24
3664;BME280;1848;51.042;7.066;2022-07-05T04:48:22;100845.19;;;14.78;91.82
3664;BME280;1848;51.042;7.066;2022-07-05T04:50:48;100853.50;;;14.90;91.46
3664;BME280;1848;51.042;7.066;2022-07-05T04:53:14;100845.22;;;14.91;89.84
3664;BME280;1848;51.042;7.066;2022-07-05T04:55:41;100850.19;;;14.94;91.00
3664;BME280;1848;51.042;7.066;2022-07-05T04:58:07;100847.72;;;14.99;91.51
3664;BME280;1848;51.042;7.066;2022-07-05T05:00:34;100844.81;;;15.01;91.46
3664;BME280;1848;51.042;7.066;2022-07-05T05:03:01;100846.47;;;15.02;90.73
3664;BME280;1848;51.042;7.066;2022-07-05T05:05:27;100848.13;;;14.96;87.62
3664;BME280;1848;51.042;7.066;2022-07-05T05:07:53;100842.94;;;14.95;87.73
3664;BME280;1848;51.042;7.066;2022-07-05T05:10:20;100846.91;;;14.99;88.63
3664;BME280;1848;51.042;7.066;2022-07-05T05:12:46;100850.63;;;15.05;88.91
3664;BME280;1848;51.042;7.066;2022-07-05T05:15:13;100848.75;;;15.12;89.41
3664;BME280;1848;51.042;7.066;2022-07-05T05:17:42;100848.56;;;15.20;90.75
3664;BME280;1848;51.042;7.066;2022-07-05T05:20:15;100848.97;;;15.24;86.71
3664;BME280;1848;51.042;7.066;2022-07-05T05:22:42;100854.75;;;15.34;86.31
3664;BME280;1848;51.042;7.066;2022-07-05T05:25:09;100855.16;;;15.44;86.14
3664;BME280;1848;51.042;7.066;2022-07-05T05:27:47;100855.16;;;15.51;84.12
3664;BME280;1848;51.042;7.066;2022-07-05T05:30:16;100859.88;;;15.62;85.97
3664;BME280;1848;51.042;7.066;2022-07-05T05:32:43;100851.78;;;15.69;84.95
3664;BME280;1848;51.042;7.066;2022-07-05T05:35:10;100864.84;;;15.85;83.05
3664;BME280;1848;51.042;7.066;2022-07-05T05:37:51;100858.16;;;16.01;82.43
3664;BME280;1848;51.042;7.066;2022-07-05T05:40:19;100853.56;;;16.02;84.81
3664;BME280;1848;51.042;7.066;2022-07-05T05:42:46;100867.41;;;16.19;83.79
3664;BME280;1848;51.042;7.066;2022-07-05T05:45:13;100866.56;;;16.25;82.50
3664;BME280;1848;51.042;7.066;2022-07-05T05:47:53;100857.38;;;16.32;81.54
3664;BME280;1848;51.042;7.066;2022-07-05T05:50:21;100860.28;;;16.38;81.37
3664;BME280;1848;51.042;7.066;2022-07-05T05:52:48;100861.06;;;16.45;81.50
3664;BME280;1848;51.042;7.066;2022-07-05T05:55:16;100858.75;;;16.48;79.57
3664;BME280;1848;51.042;7.066;2022-07-05T05:57:42;100865.78;;;16.56;76.41
3664;BME280;1848;51.042;7.066;2022-07-05T06:00:10;100880.25;;;16.68;78.83
3664;BME280;1848;51.042;7.066;2022-07-05T06:02:36;100866.91;;;16.74;80.55
3664;BME280;1848;51.042;7.066;2022-07-05T06:05:04;100857.44;;;16.64;79.78
3664;BME280;1848;51.042;7.066;2022-07-05T06:07:30;100869.41;;;16.75;77.75
3664;BME280;1848;51.042;7.066;2022-07-05T06:09:57;100865.41;;;16.78;81.31
3664;BME280;1848;51.042;7.066;2022-07-05T06:12:23;100875.78;;;16.81;79.47
3664;BME280;1848;51.042;7.066;2022-07-05T06:14:49;100891.19;;;16.80;83.54
3664;BME280;1848;51.042;7.066;2022-07-05T06:17:16;100864.66;;;16.70;81.69
3664;BME280;1848;51.042;7.066;2022-07-05T06:19:42;100874.75;;;16.82;82.20
3664;BME280;1848;51.042;7.066;2022-07-05T06:22:09;100879.72;;;16.85;83.08
3664;BME280;1848;51.042;7.066;2022-07-05T06:24:35;100883.06;;;16.87;80.52
3664;BME280;1848;51.042;7.066;2022-07-05T06:27:02;100884.06;;;16.93;81.14
3664;BME280;1848;51.042;7.066;2022-07-05T06:29:28;100882.34;;;16.98;79.59
3664;BME280;1848;51.042;7.066;2022-07-05T06:31:55;100895.38;;;17.08;79.72
3664;BME280;1848;51.042;7.066;2022-07-05T06:34:21;100886.78;;;17.18;79.17
3664;BME280;1848;51.042;7.066;2022-07-05T06:36:48;100891.28;;;17.24;78.56
3664;BME280;1848;51.042;7.066;2022-07-05T06:39:14;100894.34;;;17.34;73.42
3664;BME280;1848;51.042;7.066;2022-07-05T06:41:40;100901.94;;;17.44;76.56
3664;BME280;1848;51.042;7.066;2022-07-05T06:44:07;100906.44;;;17.50;78.58
3664;BME280;1848;51.042;7.066;2022-07-05T06:46:53;100911.03;;;17.50;78.64
3664;BME280;1848;51.042;7.066;2022-07-05T06:49:20;100905.19;;;17.53;77.42
3664;BME280;1848;51.042;7.066;2022-07-05T06:51:46;100910.16;;;17.56;76.44
3664;BME280;1848;51.042;7.066;2022-07-05T06:54:13;100917.16;;;17.63;76.15
3664;BME280;1848;51.042;7.066;2022-07-05T06:56:59;100917.25;;;17.75;71.19
3664;BME280;1848;51.042;7.066;2022-07-05T06:59:45;100914.81;;;17.92;67.83
3664;BME280;1848;51.042;7.066;2022-07-05T07:02:28;100906.22;;;17.95;67.17
3664;BME280;1848;51.042;7.066;2022-07-05T07:04:55;100916.09;;;18.08;69.90
3664;BME280;1848;51.042;7.066;2022-07-05T07:07:39;100906.09;;;18.09;70.05
3664;BME280;1848;51.042;7.066;2022-07-05T07:10:24;100919.84;;;18.26;67.04
3664;BME280;1848;51.042;7.066;2022-07-05T07:12:58;100919.41;;;18.29;64.52
3664;BME280;1848;51.042;7.066;2022-07-05T07:15:25;100920.81;;;18.31;63.51
3664;BME280;1848;51.042;7.066;2022-07-05T07:17:51;100915.31;;;18.38;66.41
3664;BME280;1848;51.042;7.066;2022-07-05T07:20:18;100925.03;;;18.46;68.02
3664;BME280;1848;51.042;7.066;2022-07-05T07:22:44;100920.19;;;18.48;67.05
3664;BME280;1848;51.042;7.066;2022-07-05T07:25:11;100903.00;;;18.42;67.73
3664;BME280;1848;51.042;7.066;2022-07-05T07:27:49;100922.38;;;18.57;65.91
3664;BME280;1848;51.042;7.066;2022-07-05T07:30:18;100921.16;;;18.53;64.33
3664;BME280;1848;51.042;7.066;2022-07-05T07:32:45;100910.91;;;18.55;64.51
3664;BME280;1848;51.042;7.066;2022-07-05T07:35:12;100931.72;;;18.73;63.92
3664;BME280;1848;51.042;7.066;2022-07-05T07:37:39;100928.09;;;18.80;66.47
3664;BME280;1848;51.042;7.066;2022-07-05T07:40:06;100935.56;;;18.84;64.92
3664;BME280;1848;51.042;7.066;2022-07-05T07:42:33;100930.75;;;18.86;64.61
3664;BME280;1848;51.042;7.066;2022-07-05T07:45:00;100936.75;;;18.88;64.55
3664;BME280;1848;51.042;7.066;2022-07-05T07:47:34;100934.78;;;18.95;63.05
3664;BME280;1848;51.042;7.066;2022-07-05T07:50:02;100940.09;;;19.02;63.40
3664;BME280;1848;51.042;7.066;2022-07-05T07:52:29;100947.53;;;19.07;60.47
3664;BME280;1848;51.042;7.066;2022-07-05T07:54:56;100943.19;;;19.06;59.62
3664;BME280;1848;51.042;7.066;2022-07-05T07:57:23;100945.03;;;19.05;60.33
3664;BME280;1848;51.042;7.066;2022-07-05T07:59:49;100943.78;;;19.08;61.06
3664;BME280;1848;51.042;7.066;2022-07-05T08:02:16;100944.59;;;19.08;60.85
3664;BME280;1848;51.042;7.066;2022-07-05T08:04:43;100938.25;;;19.14;60.30
3664;BME280;1848;51.042;7.066;2022-07-05T08:07:10;100944.75;;;19.25;62.10
3664;BME280;1848;51.042;7.066;2022-07-05T08:09:37;100947.00;;;19.28;61.15
3664;BME280;1848;51.042;7.066;2022-07-05T08:12:03;100950.56;;;19.41;58.65
3664;BME280;1848;51.042;7.066;2022-07-05T08:14:30;100950.06;;;19.32;58.68
3664;BME280;1848;51.042;7.066;2022-07-05T08:16:56;100949.63;;;19.35;57.86
3664;BME280;1848;51.042;7.066;2022-07-05T08:19:24;100943.38;;;19.46;57.40
3664;BME280;1848;51.042;7.066;2022-07-05T08:22:09;100942.44;;;19.76;56.83
3664;BME280;1848;51.042;7.066;2022-07-05T08:24:39;100947.06;;;19.99;54.91
3664;BME280;1848;51.042;7.066;2022-07-05T08:27:07;100943.47;;;20.22;53.96
3664;BME280;1848;51.042;7.066;2022-07-05T08:29:33;100945.44;;;20.39;53.04
3664;BME280;1848;51.042;7.066;2022-07-05T08:32:00;100941.16;;;20.43;52.42
3664;BME280;1848;51.042;7.066;2022-07-05T08:34:27;100943.41;;;20.46;52.24
3664;BME280;1848;51.042;7.066;2022-07-05T08:36:53;100953.47;;;20.45;53.83
3664;BME280;1848;51.042;7.066;2022-07-05T08:39:20;100939.22;;;20.55;53.34
3664;BME280;1848;51.042;7.066;2022-07-05T08:41:49;100944.19;;;20.58;54.45
3664;BME280;1848;51.042;7.066;2022-07-05T08:44:20;100937.94;;;20.58;54.63
3664;BME280;1848;51.042;7.066;2022-07-05T08:46:48;100942.72;;;20.79;53.68
3664;BME280;1848;51.042;7.066;2022-07-05T08:49:19;100934.16;;;20.88;53.47
3664;BME280;1848;51.042;7.066;2022-07-05T08:51:46;100942.34;;;21.05;53.57
3664;BME280;1848;51.042;7.066;2022-07-05T08:54:14;100942.06;;;21.18;52.23
3664;BME280;1848;51.042;7.066;2022-07-05T08:56:42;100941.78;;;21.36;51.81
3664;BME280;1848;51.042;7.066;2022-07-05T08:59:28;100946.78;;;21.56;50.57
3664;BME280;1848;51.042;7.066;2022-07-05T09:01:56;100937.50;;;21.74;50.25
3664;BME280;1848;51.042;7.066;2022-07-05T09:04:23;100945.34;;;22.10;50.42
3664;BME280;1848;51.042;7.066;2022-07-05T09:06:54;100939.69;;;21.94;49.20
3664;BME280;1848;51.042;7.066;2022-07-05T09:09:25;100941.97;;;21.64;50.82
3664;BME280;1848;51.042;7.066;2022-07-05T09:11:51;100952.88;;;21.64;53.26
3664;BME280;1848;51.042;7.066;2022-07-05T09:14:38;100946.75;;;21.90;47.48
3664;BME280;1848;51.042;7.066;2022-07-05T09:17:06;100953.56;;;21.93;49.14
3664;BME280;1848;51.042;7.066;2022-07-05T09:19:32;100950.34;;;21.96;49.43
3664;BME280;1848;51.042;7.066;2022-07-05T09:22:06;100954.38;;;22.33;48.49
3664;BME280;1848;51.042;7.066;2022-07-05T09:24:44;100956.34;;;22.86;45.88
3664;BME280;1848;51.042;7.066;2022-07-05T09:27:11;100957.78;;;23.21;49.78
3664;BME280;1848;51.042;7.066;2022-07-05T09:29:38;100951.78;;;23.19;46.51
3664;BME280;1848;51.042;7.066;2022-07-05T09:32:22;100941.13;;;22.91;45.60
3664;BME280;1848;51.042;7.066;2022-07-05T09:34:49;100958.22;;;22.59;44.68
3664;BME280;1848;51.042;7.066;2022-07-05T09:37:15;100951.00;;;22.25;45.97
3664;BME280;1848;51.042;7.066;2022-07-05T09:39:42;100970.38;;;22.46;44.85
3664;BME280;1848;51.042;7.066;2022-07-05T09:44:48;100965.81;;;24.08;47.09
3664;BME280;1848;51.042;7.066;2022-07-05T09:47:19;100963.84;;;24.57;44.24
3664;BME280;1848;51.042;7.066;2022-07-05T09:49:51;100959.06;;;25.15;40.71
3664;BME280;1848;51.042;7.066;2022-07-05T09:52:36;100958.19;;;24.89;41.16
3664;BME280;1848;51.042;7.066;2022-07-05T09:55:05;100958.19;;;24.84;40.17
3664;BME280;1848;51.042;7.066;2022-07-05T09:57:35;100956.88;;;25.48;40.68
3664;BME280;1848;51.042;7.066;2022-07-05T10:00:08;100947.47;;;26.11;37.14
3664;BME280;1848;51.042;7.066;2022-07-05T10:02:52;100952.75;;;26.52;36.41
3664;BME280;1848;51.042;7.066;2022-07-05T10:05:22;100960.19;;;27.01;33.62
3664;BME280;1848;51.042;7.066;2022-07-05T10:07:50;100955.31;;;27.32;36.47
3664;BME280;1848;51.042;7.066;2022-07-05T10:10:28;100959.19;;;27.56;34.38
3664;BME280;1848;51.042;7.066;2022-07-05T10:12:57;100949.53;;;27.63;34.52
3664;BME280;1848;51.042;7.066;2022-07-05T10:15:29;100962.31;;;26.65;34.73
3664;BME280;1848;51.042;7.066;2022-07-05T10:18:00;100963.91;;;26.05;35.09
3664;BME280;1848;51.042;7.066;2022-07-05T10:20:34;100944.22;;;25.88;36.69
3664;BME280;1848;51.042;7.066;2022-07-05T10:23:05;100966.97;;;25.78;35.88
3664;BME280;1848;51.042;7.066;2022-07-05T10:25:32;100946.34;;;26.22;36.73
3664;BME280;1848;51.042;7.066;2022-07-05T10:27:58;100966.72;;;27.05;34.96
3664;BME280;1848;51.042;7.066;2022-07-05T10:30:25;100959.88;;;27.42;34.40
3664;BME280;1848;51.042;7.066;2022-07-05T10:32:52;100964.06;;;27.64;34.27
3664;BME280;1848;51.042;7.066;2022-07-05T10:35:19;100962.84;;;27.11;34.96
3664;BME280;1848;51.042;7.066;2022-07-05T10:37:50;100960.50;;;26.39;36.30
3664;BME280;1848;51.042;7.066;2022-07-05T10:40:17;100959.09;;;26.97;37.40
3664;BME280;1848;51.042;7.066;2022-07-05T10:42:51;100957.72;;;27.00;35.58
3664;BME280;1848;51.042;7.066;2022-07-05T10:53:08;100947.50;;;25.80;36.70
3664;BME280;1848;51.042;7.066;2022-07-05T11:00:43;100954.19;;;28.16;37.10
3664;BME280;1848;51.042;7.066;2022-07-05T11:05:59;100963.00;;;28.80;35.48
3664;BME280;1848;51.042;7.066;2022-07-05T11:08:26;100969.88;;;29.35;32.82
3664;BME280;1848;51.042;7.066;2022-07-05T11:11:12;100949.69;;;28.69;31.21
3664;BME280;1848;51.042;7.066;2022-07-05T11:13:40;100958.06;;;27.62;32.34
3664;BME280;1848;51.042;7.066;2022-07-05T11:16:33;100963.81;;;27.89;36.27
3664;BME280;1848;51.042;7.066;2022-07-05T11:19:08;100950.53;;;27.72;34.56
3664;BME280;1848;51.042;7.066;2022-07-05T11:21:38;100934.78;;;26.30;35.92
3664;BME280;1848;51.042;7.066;2022-07-05T11:24:20;100945.38;;;25.72;38.80
3664;BME280;1848;51.042;7.066;2022-07-05T11:26:48;100951.59;;;25.93;39.10
3664;BME280;1848;51.042;7.066;2022-07-05T11:29:47;100958.25;;;26.52;37.27
3664;BME280;1848;51.042;7.066;2022-07-05T11:34:55;100955.38;;;28.10;35.05
3664;BME280;1848;51.042;7.066;2022-07-05T11:37:27;100948.53;;;28.89;33.90
3664;BME280;1848;51.042;7.066;2022-07-05T11:42:47;100947.06;;;29.48;32.26
3664;BME280;1848;51.042;7.066;2022-07-05T11:45:14;100949.31;;;29.60;30.95
3664;BME280;1848;51.042;7.066;2022-07-05T11:47:40;100924.22;;;29.75;31.79
3664;BME280;1848;51.042;7.066;2022-07-05T11:50:10;100947.34;;;29.14;33.41
3664;BME280;1848;51.042;7.066;2022-07-05T11:52:37;100937.81;;;28.06;33.30
3664;BME280;1848;51.042;7.066;2022-07-05T11:55:06;100932.72;;;27.41;36.48
3664;BME280;1848;51.042;7.066;2022-07-05T11:57:33;100932.94;;;27.73;33.71
3664;BME280;1848;51.042;7.066;2022-07-05T12:00:00;100930.66;;;28.29;35.44
3664;BME280;1848;51.042;7.066;2022-07-05T12:02:27;100936.50;;;28.84;30.64
3664;BME280;1848;51.042;7.066;2022-07-05T12:04:56;100939.53;;;29.21;33.10
3664;BME280;1848;51.042;7.066;2022-07-05T12:07:30;100929.94;;;28.99;30.72
3664;BME280;1848;51.042;7.066;2022-07-05T12:09:57;100928.25;;;28.22;31.65
3664;BME280;1848;51.042;7.066;2022-07-05T12:12:43;100911.09;;;28.12;33.07
3664;BME280;1848;51.042;7.066;2022-07-05T12:15:20;100922.63;;;28.33;30.70
3664;BME280;1848;51.042;7.066;2022-07-05T12:17:49;100914.41;;;28.52;32.08
3664;BME280;1848;51.042;7.066;2022-07-05T12:20:24;100904.16;;;28.76;31.44
3664;BME280;1848;51.042;7.066;2022-07-05T12:22:51;100916.66;;;28.88;32.33
3664;BME280;1848;51.042;7.066;2022-07-05T12:25:19;100923.47;;;28.90;32.67
3664;BME280;1848;51.042;7.066;2022-07-05T12:27:48;100921.13;;;28.21;32.39
3664;BME280;1848;51.042;7.066;2022-07-05T12:30:16;100903.31;;;27.41;32.53
3664;BME280;1848;51.042;7.066;2022-07-05T12:35:43;100916.28;;;27.01;33.73
3664;BME280;1848;51.042;7.066;2022-07-05T12:38:17;100910.03;;;27.54;33.96
3664;BME280;1848;51.042;7.066;2022-07-05T12:40:49;100913.69;;;28.03;32.62
3664;BME280;1848;51.042;7.066;2022-07-05T12:43:22;100912.13;;;28.16;33.36
3664;BME280;1848;51.042;7.066;2022-07-05T12:48:34;100919.47;;;28.82;32.94
3664;BME280;1848;51.042;7.066;2022-07-05T12:51:01;100908.03;;;28.56;32.90
3664;BME280;1848;51.042;7.066;2022-07-05T12:53:49;100917.44;;;28.50;31.83
3664;BME280;1848;51.042;7.066;2022-07-05T12:56:34;100910.81;;;28.32;31.74
3664;BME280;1848;51.042;7.066;2022-07-05T13:00:14;100903.09;;;28.34;30.50
3664;BME280;1848;51.042;7.066;2022-07-05T13:02:45;100913.72;;;28.41;32.31
3664;BME280;1848;51.042;7.066;2022-07-05T13:05:23;100909.53;;;28.24;30.76
3664;BME280;1848;51.042;7.066;2022-07-05T13:07:51;100890.88;;;27.73;32.66
3664;BME280;1848;51.042;7.066;2022-07-05T13:10:21;100907.16;;;27.40;32.38
3664;BME280;1848;51.042;7.066;2022-07-05T13:12:49;100902.03;;;26.94;33.63
3664;BME280;1848;51.042;7.066;2022-07-05T13:15:16;100908.50;;;26.74;33.90
3664;BME280;1848;51.042;7.066;2022-07-05T13:17:44;100915.53;;;26.35;34.64
3664;BME280;1848;51.042;7.066;2022-07-05T13:20:13;100913.25;;;26.58;34.10
3664;BME280;1848;51.042;7.066;2022-07-05T13:22:40;100907.25;;;26.51;33.81
3664;BME280;1848;51.042;7.066;2022-07-05T13:25:07;100905.25;;;26.12;34.42
3664;BME280;1848;51.042;7.066;2022-07-05T13:27:33;100908.84;;;25.92;35.80
3664;BME280;1848;51.042;7.066;2022-07-05T13:30:02;100910.00;;;25.80;36.71
3664;BME280;1848;51.042;7.066;2022-07-05T13:32:29;100914.66;;;25.70;34.92
3664;BME280;1848;51.042;7.066;2022-07-05T13:34:55;100921.25;;;25.68;36.64
3664;BME280;1848;51.042;7.066;2022-07-05T13:37:22;100922.09;;;25.59;36.14
3664;BME280;1848;51.042;7.066;2022-07-05T13:39:48;100917.59;;;26.09;36.53
3664;BME280;1848;51.042;7.066;2022-07-05T13:42:14;100905.09;;;26.48;36.55
3664;BME280;1848;51.042;7.066;2022-07-05T13:44:41;100908.78;;;26.22;36.47
3664;BME280;1848;51.042;7.066;2022-07-05T13:47:07;100907.56;;;25.74;36.73
3664;BME280;1848;51.042;7.066;2022-07-05T13:49:34;100908.13;;;25.09;38.50